sensor_id;sensor_type;location;lat;lon;timestamp;P1;durP1;ratioP1;P2;durP2;ratioP2
41623;SDS011;27319;50.306;18.926;2022-12-29T00:02:56;24.75;;;9.90;;
41623;SDS011;27319;50.306;18.926;2022-12-29T00:05:57;21.33;;;10.80;;
41623;SDS011;27319;50.306;18.926;2022-12-29T00:08:58;23.10;;;10.80;;
41623;SDS011;27319;50.306;18.926;2022-12-29T00:12:59;27.38;;;10.88;;
41623;SDS011;27319;50.306;18.926;2022-12-29T00:16:59;27.60;;;12.73;;
41623;SDS011;27319;50.306;18.926;2022-12-29T00:21:00;25.80;;;11.65;;
41623;SDS011;27319;50.306;18.926;2022-12-29T00:24:59;26.30;;;10.95;;
41623;SDS011;27319;50.306;18.926;2022-12-29T00:28:58;22.55;;;10.20;;
41623;SDS011;27319;50.306;18.926;2022-12-29T00:32:57;23.57;;;10.73;;
41623;SDS011;27319;50.306;18.926;2022-12-29T00:36:57;27.35;;;12.57;;
41623;SDS011;27319;50.306;18.926;2022-12-29T00:40:56;26.17;;;11.05;;
41623;SDS011;27319;50.306;18.926;2022-12-29T00:44:55;21.92;;;11.38;;
41623;SDS011;27319;50.306;18.926;2022-12-29T00:48:56;21.55;;;10.43;;
41623;SDS011;27319;50.306;18.926;2022-12-29T00:52:57;23.80;;;10.88;;
41623;SDS011;27319;50.306;18.926;2022-12-29T00:56:57;21.75;;;9.57;;
41623;SDS011;27319;50.306;18.926;2022-12-29T01:01:02;19.50;;;8.82;;
41623;SDS011;27319;50.306;18.926;2022-12-29T01:04:23;18.42;;;8.60;;
41623;SDS011;27319;50.306;18.926;2022-12-29T01:07:25;21.92;;;9.45;;
41623;SDS011;27319;50.306;18.926;2022-12-29T01:10:26;22.30;;;9.05;;
41623;SDS011;27319;50.306;18.926;2022-12-29T01:14:27;22.42;;;10.65;;
41623;SDS011;27319;50.306;18.926;2022-12-29T01:18:27;22.10;;;10.48;;
41623;SDS011;27319;50.306;18.926;2022-12-29T01:22:28;24.38;;;11.98;;
41623;SDS011;27319;50.306;18.926;2022-12-29T01:26:29;24.73;;;11.23;;
41623;SDS011;27319;50.306;18.926;2022-12-29T01:30:29;21.77;;;11.48;;
41623;SDS011;27319;50.306;18.926;2022-12-29T01:34:30;18.10;;;9.38;;
41623;SDS011;27319;50.306;18.926;2022-12-29T01:38:31;20.58;;;10.30;;
41623;SDS011;27319;50.306;18.926;2022-12-29T01:42:31;25.70;;;13.10;;
41623;SDS011;27319;50.306;18.926;2022-12-29T01:49:57;23.98;;;11.75;;
41623;SDS011;27319;50.306;18.926;2022-12-29T01:53:39;22.42;;;11.48;;
41623;SDS011;27319;50.306;18.926;2022-12-29T01:57:40;22.95;;;10.63;;
41623;SDS011;27319;50.306;18.926;2022-12-29T02:01:41;26.73;;;12.30;;
41623;SDS011;27319;50.306;18.926;2022-12-29T02:04:42;21.83;;;11.00;;
41623;SDS011;27319;50.306;18.926;2022-12-29T02:07:46;23.27;;;11.75;;
41623;SDS011;27319;50.306;18.926;2022-12-29T02:10:49;18.13;;;10.15;;
41623;SDS011;27319;50.306;18.926;2022-12-29T02:13:51;23.33;;;11.02;;
41623;SDS011;27319;50.306;18.926;2022-12-29T02:31:41;21.17;;;10.70;;
41623;SDS011;27319;50.306;18.926;2022-12-29T02:35:48;20.30;;;10.25;;
41623;SDS011;27319;50.306;18.926;2022-12-29T02:50:31;16.30;;;8.95;;
41623;SDS011;27319;50.306;18.926;2022-12-29T02:54:28;13.02;;;6.80;;
41623;SDS011;27319;50.306;18.926;2022-12-29T02:58:29;15.65;;;11.00;;
41623;SDS011;27319;50.306;18.926;2022-12-29T03:09:34;13.32;;;7.70;;
41623;SDS011;27319;50.306;18.926;2022-12-29T03:13:15;45.10;;;30.67;;
41623;SDS011;27319;50.306;18.926;2022-12-29T03:16:56;25.73;;;17.00;;
41623;SDS011;27319;50.306;18.926;2022-12-29T03:21:00;24.00;;;16.42;;
41623;SDS011;27319;50.306;18.926;2022-12-29T03:25:28;20.80;;;13.45;;
41623;SDS011;27319;50.306;18.926;2022-12-29T03:29:07;15.70;;;8.95;;
41623;SDS011;27319;50.306;18.926;2022-12-29T03:33:09;12.38;;;7.50;;
41623;SDS011;27319;50.306;18.926;2022-12-29T03:37:13;13.25;;;7.78;;
41623;SDS011;27319;50.306;18.926;2022-12-29T03:41:10;15.82;;;7.35;;
41623;SDS011;27319;50.306;18.926;2022-12-29T03:45:10;14.00;;;7.65;;
41623;SDS011;27319;50.306;18.926;2022-12-29T03:49:10;16.77;;;9.98;;
41623;SDS011;27319;50.306;18.926;2022-12-29T03:53:11;13.95;;;8.75;;
41623;SDS011;27319;50.306;18.926;2022-12-29T03:57:12;15.50;;;8.25;;
41623;SDS011;27319;50.306;18.926;2022-12-29T04:01:12;11.15;;;6.28;;
41623;SDS011;27319;50.306;18.926;2022-12-29T04:04:21;12.70;;;7.47;;
41623;SDS011;27319;50.306;18.926;2022-12-29T04:07:22;13.02;;;7.75;;
41623;SDS011;27319;50.306;18.926;2022-12-29T04:10:22;15.35;;;8.52;;
41623;SDS011;27319;50.306;18.926;2022-12-29T04:13:23;12.98;;;8.32;;
41623;SDS011;27319;50.306;18.926;2022-12-29T04:16:24;12.25;;;8.15;;
41623;SDS011;27319;50.306;18.926;2022-12-29T04:19:25;13.95;;;8.45;;
41623;SDS011;27319;50.306;18.926;2022-12-29T04:22:26;12.95;;;8.30;;
41623;SDS011;27319;50.306;18.926;2022-12-29T04:26:27;11.45;;;7.13;;
41623;SDS011;27319;50.306;18.926;2022-12-29T04:30:27;12.48;;;8.10;;
41623;SDS011;27319;50.306;18.926;2022-12-29T04:34:28;10.38;;;6.22;;
41623;SDS011;27319;50.306;18.926;2022-12-29T04:37:50;14.32;;;6.85;;
41623;SDS011;27319;50.306;18.926;2022-12-29T04:41:51;11.35;;;6.93;;
41623;SDS011;27319;50.306;18.926;2022-12-29T04:45:52;17.00;;;9.38;;
41623;SDS011;27319;50.306;18.926;2022-12-29T04:49:53;25.65;;;12.95;;
41623;SDS011;27319;50.306;18.926;2022-12-29T04:53:53;30.42;;;17.00;;
41623;SDS011;27319;50.306;18.926;2022-12-29T04:57:54;21.63;;;12.82;;
41623;SDS011;27319;50.306;18.926;2022-12-29T05:01:55;19.70;;;10.10;;
41623;SDS011;27319;50.306;18.926;2022-12-29T05:04:55;15.40;;;9.02;;
41623;SDS011;27319;50.306;18.926;2022-12-29T05:08:56;18.65;;;9.27;;
41623;SDS011;27319;50.306;18.926;2022-12-29T05:12:57;21.38;;;11.70;;
41623;SDS011;27319;50.306;18.926;2022-12-29T05:16:57;29.85;;;15.75;;
41623;SDS011;27319;50.306;18.926;2022-12-29T05:20:58;46.35;;;21.80;;
41623;SDS011;27319;50.306;18.926;2022-12-29T05:24:59;35.50;;;20.38;;
41623;SDS011;27319;50.306;18.926;2022-12-29T05:28:59;27.45;;;16.13;;
41623;SDS011;27319;50.306;18.926;2022-12-29T05:33:00;26.55;;;13.50;;
41623;SDS011;27319;50.306;18.926;2022-12-29T05:37:01;23.77;;;13.02;;
41623;SDS011;27319;50.306;18.926;2022-12-29T05:41:02;27.27;;;12.80;;
41623;SDS011;27319;50.306;18.926;2022-12-29T05:45:02;26.23;;;13.15;;
41623;SDS011;27319;50.306;18.926;2022-12-29T05:49:04;22.40;;;13.23;;
41623;SDS011;27319;50.306;18.926;2022-12-29T05:53:04;21.17;;;13.55;;
41623;SDS011;27319;50.306;18.926;2022-12-29T05:57:04;23.05;;;14.18;;
41623;SDS011;27319;50.306;18.926;2022-12-29T06:01:05;26.58;;;13.43;;
41623;SDS011;27319;50.306;18.926;2022-12-29T06:04:22;31.70;;;17.13;;
41623;SDS011;27319;50.306;18.926;2022-12-29T06:07:22;23.42;;;13.27;;
41623;SDS011;27319;50.306;18.926;2022-12-29T06:10:24;27.58;;;13.65;;
41623;SDS011;27319;50.306;18.926;2022-12-29T06:14:24;25.38;;;11.95;;
41623;SDS011;27319;50.306;18.926;2022-12-29T06:18:25;19.85;;;10.57;;
41623;SDS011;27319;50.306;18.926;2022-12-29T06:22:25;17.88;;;9.57;;
41623;SDS011;27319;50.306;18.926;2022-12-29T06:26:26;17.33;;;9.93;;
41623;SDS011;27319;50.306;18.926;2022-12-29T06:30:27;25.15;;;12.63;;
41623;SDS011;27319;50.306;18.926;2022-12-29T06:34:27;25.67;;;10.48;;
41623;SDS011;27319;50.306;18.926;2022-12-29T06:38:28;23.27;;;11.38;;
41623;SDS011;27319;50.306;18.926;2022-12-29T06:42:29;20.40;;;10.45;;
41623;SDS011;27319;50.306;18.926;2022-12-29T06:46:29;21.35;;;10.60;;
41623;SDS011;27319;50.306;18.926;2022-12-29T06:50:30;24.48;;;10.93;;
41623;SDS011;27319;50.306;18.926;2022-12-29T06:54:31;39.72;;;11.10;;
41623;SDS011;27319;50.306;18.926;2022-12-29T06:58:32;25.95;;;11.15;;
41623;SDS011;27319;50.306;18.926;2022-12-29T07:02:32;21.55;;;11.15;;
41623;SDS011;27319;50.306;18.926;2022-12-29T07:05:33;24.95;;;10.60;;
41623;SDS011;27319;50.306;18.926;2022-12-29T07:08:34;27.80;;;12.23;;
41623;SDS011;27319;50.306;18.926;2022-12-29T07:11:35;24.02;;;11.45;;
41623;SDS011;27319;50.306;18.926;2022-12-29T07:14:36;22.30;;;10.23;;
41623;SDS011;27319;50.306;18.926;2022-12-29T07:17:37;24.17;;;11.35;;
41623;SDS011;27319;50.306;18.926;2022-12-29T07:21:38;20.52;;;10.35;;
41623;SDS011;27319;50.306;18.926;2022-12-29T07:25:38;21.77;;;10.68;;
41623;SDS011;27319;50.306;18.926;2022-12-29T07:29:39;20.15;;;10.40;;
41623;SDS011;27319;50.306;18.926;2022-12-29T07:33:40;26.23;;;11.65;;
41623;SDS011;27319;50.306;18.926;2022-12-29T07:37:40;23.60;;;12.30;;
41623;SDS011;27319;50.306;18.926;2022-12-29T07:41:41;29.20;;;13.23;;
41623;SDS011;27319;50.306;18.926;2022-12-29T07:45:41;23.48;;;11.80;;
41623;SDS011;27319;50.306;18.926;2022-12-29T07:49:42;25.00;;;12.10;;
41623;SDS011;27319;50.306;18.926;2022-12-29T07:53:43;26.17;;;11.70;;
41623;SDS011;27319;50.306;18.926;2022-12-29T07:57:44;23.60;;;11.20;;
41623;SDS011;27319;50.306;18.926;2022-12-29T08:00:45;20.63;;;10.25;;
41623;SDS011;27319;50.306;18.926;2022-12-29T08:04:21;19.80;;;10.07;;
41623;SDS011;27319;50.306;18.926;2022-12-29T08:07:22;17.77;;;10.40;;
41623;SDS011;27319;50.306;18.926;2022-12-29T08:11:23;27.30;;;14.20;;
41623;SDS011;27319;50.306;18.926;2022-12-29T08:15:24;31.58;;;19.17;;
41623;SDS011;27319;50.306;18.926;2022-12-29T08:19:24;22.88;;;12.75;;
41623;SDS011;27319;50.306;18.926;2022-12-29T08:23:25;25.42;;;15.15;;
41623;SDS011;27319;50.306;18.926;2022-12-29T08:27:26;29.63;;;14.40;;
41623;SDS011;27319;50.306;18.926;2022-12-29T08:31:26;25.95;;;13.20;;
41623;SDS011;27319;50.306;18.926;2022-12-29T08:35:27;24.15;;;12.82;;
41623;SDS011;27319;50.306;18.926;2022-12-29T08:39:28;22.02;;;11.85;;
41623;SDS011;27319;50.306;18.926;2022-12-29T08:43:29;27.15;;;13.55;;
41623;SDS011;27319;50.306;18.926;2022-12-29T08:47:29;22.63;;;11.73;;
41623;SDS011;27319;50.306;18.926;2022-12-29T08:51:30;25.42;;;11.95;;
41623;SDS011;27319;50.306;18.926;2022-12-29T08:55:31;22.50;;;12.50;;
41623;SDS011;27319;50.306;18.926;2022-12-29T08:59:37;24.70;;;12.85;;
41623;SDS011;27319;50.306;18.926;2022-12-29T09:03:38;20.83;;;11.20;;
41623;SDS011;27319;50.306;18.926;2022-12-29T09:07:39;24.00;;;10.48;;
41623;SDS011;27319;50.306;18.926;2022-12-29T09:11:39;19.23;;;11.25;;
41623;SDS011;27319;50.306;18.926;2022-12-29T09:15:40;23.33;;;13.18;;
41623;SDS011;27319;50.306;18.926;2022-12-29T09:19:40;23.75;;;11.55;;
41623;SDS011;27319;50.306;18.926;2022-12-29T09:23:41;26.02;;;15.07;;
41623;SDS011;27319;50.306;18.926;2022-12-29T09:27:42;21.92;;;12.10;;
41623;SDS011;27319;50.306;18.926;2022-12-29T09:31:42;25.95;;;14.48;;
41623;SDS011;27319;50.306;18.926;2022-12-29T09:35:44;23.20;;;11.05;;
41623;SDS011;27319;50.306;18.926;2022-12-29T09:39:44;27.13;;;14.93;;
41623;SDS011;27319;50.306;18.926;2022-12-29T09:42:46;23.98;;;11.85;;
41623;SDS011;27319;50.306;18.926;2022-12-29T09:46:41;24.08;;;12.15;;
41623;SDS011;27319;50.306;18.926;2022-12-29T09:50:41;15.70;;;10.10;;
41623;SDS011;27319;50.306;18.926;2022-12-29T10:05:23;20.60;;;10.20;;
41623;SDS011;27319;50.306;18.926;2022-12-29T10:12:55;26.08;;;12.50;;
41623;SDS011;27319;50.306;18.926;2022-12-29T10:16:17;23.95;;;11.73;;
41623;SDS011;27319;50.306;18.926;2022-12-29T10:27:32;20.05;;;12.48;;
41623;SDS011;27319;50.306;18.926;2022-12-29T10:31:39;21.17;;;12.18;;
41623;SDS011;27319;50.306;18.926;2022-12-29T10:35:39;21.92;;;12.32;;
41623;SDS011;27319;50.306;18.926;2022-12-29T10:39:44;25.55;;;11.45;;
41623;SDS011;27319;50.306;18.926;2022-12-29T10:43:50;21.75;;;12.10;;
41623;SDS011;27319;50.306;18.926;2022-12-29T10:47:58;19.25;;;11.05;;
41623;SDS011;27319;50.306;18.926;2022-12-29T10:51:57;25.20;;;11.10;;
41623;SDS011;27319;50.306;18.926;2022-12-29T10:55:57;22.02;;;11.82;;
41623;SDS011;27319;50.306;18.926;2022-12-29T10:59:50;22.92;;;10.82;;
41623;SDS011;27319;50.306;18.926;2022-12-29T11:07:34;21.95;;;10.77;;
41623;SDS011;27319;50.306;18.926;2022-12-29T11:11:35;17.42;;;11.13;;
41623;SDS011;27319;50.306;18.926;2022-12-29T11:15:45;20.63;;;10.73;;
41623;SDS011;27319;50.306;18.926;2022-12-29T11:23:36;23.40;;;14.32;;
41623;SDS011;27319;50.306;18.926;2022-12-29T11:27:36;28.38;;;13.60;;
41623;SDS011;27319;50.306;18.926;2022-12-29T11:31:44;29.55;;;14.15;;
41623;SDS011;27319;50.306;18.926;2022-12-29T11:35:43;29.67;;;12.55;;
41623;SDS011;27319;50.306;18.926;2022-12-29T11:43:29;17.90;;;9.70;;
41623;SDS011;27319;50.306;18.926;2022-12-29T11:47:28;15.50;;;9.02;;
41623;SDS011;27319;50.306;18.926;2022-12-29T11:51:28;20.13;;;10.65;;
41623;SDS011;27319;50.306;18.926;2022-12-29T11:55:28;19.58;;;10.52;;
41623;SDS011;27319;50.306;18.926;2022-12-29T11:59:36;18.65;;;10.98;;
41623;SDS011;27319;50.306;18.926;2022-12-29T12:03:35;24.52;;;12.70;;
41623;SDS011;27319;50.306;18.926;2022-12-29T12:06:47;17.45;;;10.90;;
41623;SDS011;27319;50.306;18.926;2022-12-29T12:14:34;18.73;;;11.02;;
41623;SDS011;27319;50.306;18.926;2022-12-29T12:21:56;26.60;;;12.10;;
41623;SDS011;27319;50.306;18.926;2022-12-29T12:25:56;24.95;;;12.75;;
41623;SDS011;27319;50.306;18.926;2022-12-29T12:30:03;24.65;;;11.18;;
41623;SDS011;27319;50.306;18.926;2022-12-29T12:34:03;22.98;;;13.25;;
41623;SDS011;27319;50.306;18.926;2022-12-29T12:37:55;22.20;;;11.63;;
41623;SDS011;27319;50.306;18.926;2022-12-29T12:49:40;28.70;;;10.60;;
41623;SDS011;27319;50.306;18.926;2022-12-29T13:01:17;21.38;;;11.80;;
41623;SDS011;27319;50.306;18.926;2022-12-29T13:22:37;21.25;;;12.88;;
41623;SDS011;27319;50.306;18.926;2022-12-29T13:26:22;20.38;;;12.05;;
41623;SDS011;27319;50.306;18.926;2022-12-29T13:30:33;19.10;;;11.45;;
41623;SDS011;27319;50.306;18.926;2022-12-29T13:34:47;22.65;;;13.20;;
41623;SDS011;27319;50.306;18.926;2022-12-29T13:38:31;20.25;;;11.50;;
41623;SDS011;27319;50.306;18.926;2022-12-29T13:42:29;23.00;;;12.45;;
41623;SDS011;27319;50.306;18.926;2022-12-29T13:46:34;21.88;;;12.75;;
41623;SDS011;27319;50.306;18.926;2022-12-29T13:50:35;26.75;;;14.00;;
41623;SDS011;27319;50.306;18.926;2022-12-29T13:59:42;19.58;;;11.68;;
41623;SDS011;27319;50.306;18.926;2022-12-29T14:06:18;19.33;;;12.90;;
41623;SDS011;27319;50.306;18.926;2022-12-29T14:10:26;23.85;;;13.63;;
41623;SDS011;27319;50.306;18.926;2022-12-29T14:14:29;25.08;;;14.35;;
41623;SDS011;27319;50.306;18.926;2022-12-29T14:18:31;26.48;;;15.90;;
41623;SDS011;27319;50.306;18.926;2022-12-29T14:22:30;25.58;;;15.98;;
41623;SDS011;27319;50.306;18.926;2022-12-29T14:26:39;32.08;;;15.60;;
41623;SDS011;27319;50.306;18.926;2022-12-29T14:33:10;37.88;;;17.85;;
41623;SDS011;27319;50.306;18.926;2022-12-29T14:37:01;39.08;;;19.95;;
41623;SDS011;27319;50.306;18.926;2022-12-29T14:41:27;44.40;;;23.67;;
41623;SDS011;27319;50.306;18.926;2022-12-29T14:52:20;36.95;;;21.75;;
41623;SDS011;27319;50.306;18.926;2022-12-29T14:56:08;35.40;;;20.75;;
41623;SDS011;27319;50.306;18.926;2022-12-29T15:00:29;44.17;;;22.88;;
41623;SDS011;27319;50.306;18.926;2022-12-29T15:04:14;38.38;;;21.90;;
41623;SDS011;27319;50.306;18.926;2022-12-29T15:08:22;38.25;;;22.05;;
41623;SDS011;27319;50.306;18.926;2022-12-29T15:12:23;40.97;;;21.65;;
41623;SDS011;27319;50.306;18.926;2022-12-29T15:19:48;44.05;;;21.60;;
41623;SDS011;27319;50.306;18.926;2022-12-29T15:23:33;38.03;;;21.15;;
41623;SDS011;27319;50.306;18.926;2022-12-29T15:26:36;36.95;;;21.77;;
41623;SDS011;27319;50.306;18.926;2022-12-29T15:30:36;33.88;;;19.98;;
41623;SDS011;27319;50.306;18.926;2022-12-29T15:34:11;30.75;;;18.63;;
41623;SDS011;27319;50.306;18.926;2022-12-29T15:38:15;34.40;;;19.05;;
41623;SDS011;27319;50.306;18.926;2022-12-29T15:46:21;27.23;;;16.33;;
41623;SDS011;27319;50.306;18.926;2022-12-29T15:50:23;26.73;;;15.68;;
41623;SDS011;27319;50.306;18.926;2022-12-29T15:54:22;31.13;;;16.30;;
41623;SDS011;27319;50.306;18.926;2022-12-29T15:58:24;30.13;;;17.55;;
41623;SDS011;27319;50.306;18.926;2022-12-29T16:02:26;33.67;;;21.05;;
41623;SDS011;27319;50.306;18.926;2022-12-29T16:05:32;36.83;;;20.95;;
41623;SDS011;27319;50.306;18.926;2022-12-29T16:08:35;40.17;;;23.75;;
41623;SDS011;27319;50.306;18.926;2022-12-29T16:11:38;51.85;;;26.63;;
41623;SDS011;27319;50.306;18.926;2022-12-29T16:14:42;51.80;;;27.02;;
41623;SDS011;27319;50.306;18.926;2022-12-29T16:18:43;54.92;;;28.00;;
41623;SDS011;27319;50.306;18.926;2022-12-29T16:22:46;41.67;;;23.98;;
41623;SDS011;27319;50.306;18.926;2022-12-29T16:26:47;43.63;;;23.25;;
41623;SDS011;27319;50.306;18.926;2022-12-29T16:31:03;50.97;;;28.15;;
41623;SDS011;27319;50.306;18.926;2022-12-29T16:46:25;51.25;;;26.25;;
41623;SDS011;27319;50.306;18.926;2022-12-29T16:50:19;47.67;;;26.48;;
41623;SDS011;27319;50.306;18.926;2022-12-29T16:54:33;49.25;;;27.27;;
41623;SDS011;27319;50.306;18.926;2022-12-29T16:58:24;41.10;;;24.92;;
41623;SDS011;27319;50.306;18.926;2022-12-29T17:02:27;43.00;;;25.17;;
41623;SDS011;27319;50.306;18.926;2022-12-29T17:05:31;41.67;;;24.38;;
41623;SDS011;27319;50.306;18.926;2022-12-29T17:09:32;41.40;;;22.70;;
41623;SDS011;27319;50.306;18.926;2022-12-29T17:13:32;40.58;;;23.83;;
41623;SDS011;27319;50.306;18.926;2022-12-29T17:17:40;49.75;;;25.50;;
41623;SDS011;27319;50.306;18.926;2022-12-29T17:21:40;47.78;;;24.98;;
41623;SDS011;27319;50.306;18.926;2022-12-29T17:25:40;52.70;;;27.77;;
41623;SDS011;27319;50.306;18.926;2022-12-29T17:29:41;45.05;;;27.23;;
41623;SDS011;27319;50.306;18.926;2022-12-29T17:33:42;39.97;;;23.13;;
41623;SDS011;27319;50.306;18.926;2022-12-29T17:37:42;49.13;;;27.42;;
41623;SDS011;27319;50.306;18.926;2022-12-29T17:41:43;47.65;;;26.65;;
41623;SDS011;27319;50.306;18.926;2022-12-29T17:45:46;50.70;;;25.73;;
41623;SDS011;27319;50.306;18.926;2022-12-29T17:49:45;38.83;;;20.27;;
41623;SDS011;27319;50.306;18.926;2022-12-29T17:53:45;32.58;;;18.42;;
41623;SDS011;27319;50.306;18.926;2022-12-29T17:57:46;28.23;;;17.50;;
41623;SDS011;27319;50.306;18.926;2022-12-29T18:02:10;35.63;;;19.27;;
41623;SDS011;27319;50.306;18.926;2022-12-29T18:05:20;33.53;;;20.58;;
41623;SDS011;27319;50.306;18.926;2022-12-29T18:09:19;29.10;;;16.15;;
41623;SDS011;27319;50.306;18.926;2022-12-29T18:13:22;30.85;;;18.45;;
41623;SDS011;27319;50.306;18.926;2022-12-29T18:17:21;30.58;;;17.00;;
41623;SDS011;27319;50.306;18.926;2022-12-29T18:21:22;31.65;;;19.15;;
41623;SDS011;27319;50.306;18.926;2022-12-29T18:25:26;32.35;;;16.70;;
41623;SDS011;27319;50.306;18.926;2022-12-29T18:29:28;34.05;;;16.85;;
41623;SDS011;27319;50.306;18.926;2022-12-29T18:33:29;33.70;;;19.63;;
41623;SDS011;27319;50.306;18.926;2022-12-29T18:37:33;34.20;;;19.30;;
41623;SDS011;27319;50.306;18.926;2022-12-29T18:41:33;30.95;;;17.23;;
41623;SDS011;27319;50.306;18.926;2022-12-29T18:45:34;34.17;;;18.00;;
41623;SDS011;27319;50.306;18.926;2022-12-29T18:49:35;32.03;;;16.73;;
41623;SDS011;27319;50.306;18.926;2022-12-29T18:53:36;32.83;;;16.48;;
41623;SDS011;27319;50.306;18.926;2022-12-29T18:57:36;24.45;;;14.48;;
41623;SDS011;27319;50.306;18.926;2022-12-29T19:01:37;25.02;;;14.38;;
41623;SDS011;27319;50.306;18.926;2022-12-29T19:04:38;28.63;;;15.00;;
41623;SDS011;27319;50.306;18.926;2022-12-29T19:07:40;37.22;;;18.52;;
41623;SDS011;27319;50.306;18.926;2022-12-29T19:11:41;55.67;;;22.58;;
41623;SDS011;27319;50.306;18.926;2022-12-29T19:15:42;52.13;;;24.25;;
41623;SDS011;27319;50.306;18.926;2022-12-29T19:19:42;36.50;;;17.80;;
41623;SDS011;27319;50.306;18.926;2022-12-29T19:23:43;49.47;;;20.85;;
41623;SDS011;27319;50.306;18.926;2022-12-29T19:26:44;69.25;;;29.67;;
41623;SDS011;27319;50.306;18.926;2022-12-29T19:30:45;72.07;;;31.17;;
41623;SDS011;27319;50.306;18.926;2022-12-29T19:34:45;52.78;;;25.30;;
41623;SDS011;27319;50.306;18.926;2022-12-29T19:38:46;35.45;;;19.48;;
41623;SDS011;27319;50.306;18.926;2022-12-29T19:41:47;35.03;;;18.42;;
41623;SDS011;27319;50.306;18.926;2022-12-29T19:44:48;30.05;;;16.85;;
41623;SDS011;27319;50.306;18.926;2022-12-29T19:47:49;28.70;;;16.42;;
41623;SDS011;27319;50.306;18.926;2022-12-29T19:51:49;29.08;;;16.45;;
41623;SDS011;27319;50.306;18.926;2022-12-29T19:55:50;27.70;;;14.70;;
41623;SDS011;27319;50.306;18.926;2022-12-29T19:58:51;24.00;;;13.98;;
41623;SDS011;27319;50.306;18.926;2022-12-29T20:01:52;29.13;;;14.57;;
41623;SDS011;27319;50.306;18.926;2022-12-29T20:04:53;32.47;;;16.77;;
41623;SDS011;27319;50.306;18.926;2022-12-29T20:07:54;29.35;;;14.45;;
41623;SDS011;27319;50.306;18.926;2022-12-29T20:10:56;27.35;;;14.57;;
41623;SDS011;27319;50.306;18.926;2022-12-29T20:13:59;37.30;;;17.00;;
41623;SDS011;27319;50.306;18.926;2022-12-29T20:17:00;48.67;;;22.15;;
41623;SDS011;27319;50.306;18.926;2022-12-29T20:20:01;35.20;;;17.90;;
41623;SDS011;27319;50.306;18.926;2022-12-29T20:23:03;28.65;;;16.30;;
41623;SDS011;27319;50.306;18.926;2022-12-29T20:26:04;25.10;;;14.90;;
41623;SDS011;27319;50.306;18.926;2022-12-29T20:29:08;25.88;;;14.93;;
41623;SDS011;27319;50.306;18.926;2022-12-29T20:32:13;30.50;;;16.42;;
41623;SDS011;27319;50.306;18.926;2022-12-29T20:35:18;32.63;;;17.15;;
41623;SDS011;27319;50.306;18.926;2022-12-29T20:39:19;30.35;;;16.38;;
41623;SDS011;27319;50.306;18.926;2022-12-29T20:43:20;82.10;;;37.03;;
41623;SDS011;27319;50.306;18.926;2022-12-29T20:47:20;70.20;;;31.42;;
41623;SDS011;27319;50.306;18.926;2022-12-29T20:51:21;71.68;;;32.45;;
41623;SDS011;27319;50.306;18.926;2022-12-29T20:55:22;35.70;;;18.80;;
41623;SDS011;27319;50.306;18.926;2022-12-29T20:59:22;36.10;;;20.60;;
41623;SDS011;27319;50.306;18.926;2022-12-29T21:03:23;38.50;;;19.88;;
41623;SDS011;27319;50.306;18.926;2022-12-29T21:07:24;67.57;;;28.98;;
41623;SDS011;27319;50.306;18.926;2022-12-29T21:11:25;48.35;;;22.77;;
41623;SDS011;27319;50.306;18.926;2022-12-29T21:15:25;32.83;;;16.92;;
41623;SDS011;27319;50.306;18.926;2022-12-29T21:19:26;26.58;;;14.30;;
41623;SDS011;27319;50.306;18.926;2022-12-29T21:23:27;25.38;;;14.23;;
41623;SDS011;27319;50.306;18.926;2022-12-29T21:27:28;25.58;;;13.35;;
41623;SDS011;27319;50.306;18.926;2022-12-29T21:31:29;21.40;;;11.75;;
41623;SDS011;27319;50.306;18.926;2022-12-29T21:35:29;21.58;;;12.23;;
41623;SDS011;27319;50.306;18.926;2022-12-29T21:39:29;23.50;;;12.43;;
41623;SDS011;27319;50.306;18.926;2022-12-29T21:43:30;25.63;;;13.10;;
41623;SDS011;27319;50.306;18.926;2022-12-29T21:47:31;22.52;;;12.35;;
41623;SDS011;27319;50.306;18.926;2022-12-29T21:51:42;22.67;;;12.40;;
41623;SDS011;27319;50.306;18.926;2022-12-29T21:55:43;24.08;;;13.00;;
41623;SDS011;27319;50.306;18.926;2022-12-29T21:59:26;25.95;;;14.48;;
41623;SDS011;27319;50.306;18.926;2022-12-29T22:03:25;34.60;;;16.63;;
41623;SDS011;27319;50.306;18.926;2022-12-29T22:07:25;28.50;;;15.43;;
41623;SDS011;27319;50.306;18.926;2022-12-29T22:11:24;27.33;;;14.90;;
41623;SDS011;27319;50.306;18.926;2022-12-29T22:15:24;26.27;;;13.80;;
41623;SDS011;27319;50.306;18.926;2022-12-29T22:18:28;26.10;;;14.20;;
41623;SDS011;27319;50.306;18.926;2022-12-29T22:21:29;27.98;;;13.90;;
41623;SDS011;27319;50.306;18.926;2022-12-29T22:24:30;25.77;;;13.90;;
41623;SDS011;27319;50.306;18.926;2022-12-29T22:27:31;26.08;;;13.45;;
41623;SDS011;27319;50.306;18.926;2022-12-29T22:30:32;22.88;;;12.85;;
41623;SDS011;27319;50.306;18.926;2022-12-29T22:33:34;28.05;;;13.52;;
41623;SDS011;27319;50.306;18.926;2022-12-29T22:36:34;16.77;;;11.43;;
41623;SDS011;27319;50.306;18.926;2022-12-29T22:39:35;21.55;;;11.52;;
41623;SDS011;27319;50.306;18.926;2022-12-29T22:42:36;23.33;;;12.48;;
41623;SDS011;27319;50.306;18.926;2022-12-29T22:46:37;22.40;;;11.95;;
41623;SDS011;27319;50.306;18.926;2022-12-29T22:50:38;21.95;;;10.73;;
41623;SDS011;27319;50.306;18.926;2022-12-29T22:54:38;22.25;;;11.95;;
41623;SDS011;27319;50.306;18.926;2022-12-29T22:58:39;20.92;;;12.05;;
41623;SDS011;27319;50.306;18.926;2022-12-29T23:02:40;17.30;;;10.30;;
41623;SDS011;27319;50.306;18.926;2022-12-29T23:05:41;18.58;;;10.30;;
41623;SDS011;27319;50.306;18.926;2022-12-29T23:08:42;19.95;;;11.23;;
41623;SDS011;27319;50.306;18.926;2022-12-29T23:11:43;20.52;;;10.43;;
41623;SDS011;27319;50.306;18.926;2022-12-29T23:14:45;22.00;;;12.50;;
41623;SDS011;27319;50.306;18.926;2022-12-29T23:17:45;20.83;;;12.13;;
41623;SDS011;27319;50.306;18.926;2022-12-29T23:20:47;18.02;;;11.20;;
41623;SDS011;27319;50.306;18.926;2022-12-29T23:23:48;22.40;;;11.68;;
41623;SDS011;27319;50.306;18.926;2022-12-29T23:27:51;16.80;;;10.35;;
41623;SDS011;27319;50.306;18.926;2022-12-29T23:31:52;25.05;;;12.82;;
41623;SDS011;27319;50.306;18.926;2022-12-29T23:35:52;19.02;;;11.57;;
41623;SDS011;27319;50.306;18.926;2022-12-29T23:39:53;19.92;;;10.77;;
41623;SDS011;27319;50.306;18.926;2022-12-29T23:43:54;18.40;;;11.15;;
41623;SDS011;27319;50.306;18.926;2022-12-29T23:47:54;18.63;;;11.32;;
41623;SDS011;27319;50.306;18.926;2022-12-29T23:51:55;18.58;;;11.40;;
41623;SDS011;27319;50.306;18.926;2022-12-29T23:55:56;20.73;;;11.55;;
41623;SDS011;27319;50.306;18.926;2022-12-29T23:59:56;23.40;;;12.15;;
